Time;durP1;ratioP1;P1;durP2;ratioP2;P2;SDS_P1;SDS_P2;PMS_P1;PMS_P2;Temp;Humidity;BMP_temperature;BMP_pressure;BME280_temperature;BME280_humidity;BME280_pressure;Samples;Min_cycle;Max_cycle;Signal;HPM_P1;HPM_P2
2023/09/04 00:00:00;;;;;;;3.75;2.40;;;;;;;;;;5067335;28;20366;-64
2023/09/04 00:02:27;;;;;;;6.05;2.70;;;;;;;;;;5066321;28;20242;-64
2023/09/04 00:04:53;;;;;;;4.32;2.10;;;;;;;;;;5065956;28;20194;-64
2023/09/04 00:07:20;;;;;;;5.38;2.33;;;;;;;;;;5066598;28;20663;-64
2023/09/04 00:09:47;;;;;;;4.72;2.20;;;;;;;;;;5066557;28;20203;-64
2023/09/04 00:12:14;;;;;;;3.03;2.25;;;;;;;;;;5065642;28;20230;-65
2023/09/04 00:14:41;;;;;;;3.65;2.50;;;;;;;;;;5066842;28;21563;-63
2023/09/04 00:17:07;;;;;;;3.78;2.75;;;;;;;;;;5066270;28;20198;-64
2023/09/04 00:19:34;;;;;;;3.25;2.63;;;;;;;;;;5065492;28;20229;-65
2023/09/04 00:22:00;;;;;;;3.40;3.20;;;;;;;;;;5064312;28;20256;-66
2023/09/04 00:24:27;;;;;;;5.22;3.10;;;;;;;;;;5065670;28;20241;-66
2023/09/04 00:26:55;;;;;;;4.35;3.47;;;;;;;;;;5065434;28;20256;-65
2023/09/04 00:29:22;;;;;;;5.15;3.22;;;;;;;;;;5066068;28;20647;-65
2023/09/04 00:31:48;;;;;;;3.65;2.83;;;;;;;;;;5065822;28;21985;-65
2023/09/04 00:34:15;;;;;;;5.80;3.38;;;;;;;;;;5063811;28;20708;-66
2023/09/04 00:36:41;;;;;;;5.05;3.17;;;;;;;;;;5065856;28;20323;-65
2023/09/04 00:39:08;;;;;;;4.05;3.30;;;;;;;;;;5064729;28;20290;-64
2023/09/04 00:41:34;;;;;;;2.92;2.72;;;;;;;;;;5066432;28;20224;-66
2023/09/04 00:44:02;;;;;;;3.28;2.92;;;;;;;;;;5065798;28;20206;-66
2023/09/04 00:46:29;;;;;;;4.53;3.00;;;;;;;;;;5065950;28;20691;-66
2023/09/04 00:48:55;;;;;;;7.63;3.17;;;;;;;;;;5061928;28;20260;-65
2023/09/04 00:51:22;;;;;;;4.43;2.97;;;;;;;;;;5066141;28;20203;-65
2023/09/04 00:53:49;;;;;;;3.28;2.90;;;;;;;;;;5064882;28;20222;-64
2023/09/04 00:56:15;;;;;;;4.55;2.88;;;;;;;;;;5065852;28;20644;-66
2023/09/04 00:58:42;;;;;;;5.75;3.20;;;;;;;;;;5065188;28;20287;-65
2023/09/04 01:01:10;;;;;;;4.75;3.05;;;;;;;;;;5065676;28;20229;-64
2023/09/04 01:03:36;;;;;;;3.55;3.03;;;;;;;;;;5064473;28;20229;-66
2023/09/04 01:06:03;;;;;;;3.70;3.38;;;;;;;;;;5065348;28;20341;-67
2023/09/04 01:08:29;;;;;;;3.95;3.63;;;;;;;;;;5064497;28;20230;-65
2023/09/04 01:10:59;;;;;;;3.50;2.97;;;;;;;;;;5062752;28;20202;-65
2023/09/04 01:13:29;;;;;;;5.18;3.28;;;;;;;;;;5065113;28;20194;-65
2023/09/04 01:15:56;;;;;;;3.42;2.75;;;;;;;;;;5061536;28;20677;-66
2023/09/04 01:18:24;;;;;;;3.58;3.22;;;;;;;;;;5063663;28;20295;-66
2023/09/04 01:21:01;;;;;;;3.47;3.17;;;;;;;;;;5064939;28;20283;-65
2023/09/04 01:23:27;;;;;;;4.43;3.67;;;;;;;;;;5063988;28;21008;-65
2023/09/04 01:25:55;;;;;;;3.30;3.00;;;;;;;;;;5063063;28;20263;-66
2023/09/04 01:28:26;;;;;;;3.30;3.00;;;;;;;;;;5062790;28;20194;-66
2023/09/04 01:30:56;;;;;;;3.60;3.30;;;;;;;;;;5065443;28;20634;-65
2023/09/04 01:33:26;;;;;;;3.67;2.97;;;;;;;;;;5064493;28;20268;-65
2023/09/04 01:35:53;;;;;;;3.28;2.97;;;;;;;;;;5064609;28;20672;-65
2023/09/04 01:38:21;;;;;;;3.00;2.72;;;;;;;;;;5064541;28;20743;-65
2023/09/04 01:40:50;;;;;;;4.35;3.00;;;;;;;;;;5065414;28;20680;-65
2023/09/04 01:43:17;;;;;;;6.28;3.05;;;;;;;;;;5064078;28;20299;-66
2023/09/04 01:45:43;;;;;;;7.13;3.35;;;;;;;;;;5064860;28;20226;-66
2023/09/04 01:48:10;;;;;;;4.85;3.00;;;;;;;;;;5064291;28;20229;-66
2023/09/04 01:50:36;;;;;;;3.95;3.35;;;;;;;;;;5065036;28;21164;-65
2023/09/04 01:53:03;;;;;;;3.10;2.97;;;;;;;;;;5064105;28;20364;-65
2023/09/04 01:55:31;;;;;;;2.75;2.55;;;;;;;;;;5064443;28;20250;-66
2023/09/04 01:57:57;;;;;;;2.78;2.58;;;;;;;;;;5064673;28;20672;-65
2023/09/04 02:00:23;;;;;;;3.22;3.03;;;;;;;;;;5063940;28;20238;-66
2023/09/04 02:02:50;;;;;;;3.10;2.80;;;;;;;;;;5063398;28;20221;-65
2023/09/04 02:05:16;;;;;;;3.20;2.90;;;;;;;;;;5064163;28;20202;-65
2023/09/04 02:07:43;;;;;;;3.00;2.80;;;;;;;;;;5064422;28;20696;-65
2023/09/04 02:10:09;;;;;;;3.70;3.50;;;;;;;;;;5064516;28;20619;-65
2023/09/04 02:12:37;;;;;;;2.78;2.60;;;;;;;;;;5064139;28;20721;-65
2023/09/04 02:15:04;;;;;;;3.35;3.05;;;;;;;;;;5064437;28;20229;-66
2023/09/04 02:17:30;;;;;;;2.97;2.85;;;;;;;;;;5064460;28;20221;-64
2023/09/04 02:19:57;;;;;;;2.83;2.63;;;;;;;;;;5064971;28;20256;-66
2023/09/04 02:22:24;;;;;;;2.60;2.50;;;;;;;;;;5064091;28;20234;-66
2023/09/04 02:24:51;;;;;;;3.90;3.65;;;;;;;;;;5063310;28;20672;-65
2023/09/04 02:27:17;;;;;;;2.80;2.60;;;;;;;;;;5066082;28;20602;-66
2023/09/04 02:29:46;;;;;;;2.88;2.67;;;;;;;;;;5069297;28;20203;-66
2023/09/04 02:32:12;;;;;;;2.90;2.80;;;;;;;;;;5068399;28;20588;-66
2023/09/04 02:34:40;;;;;;;3.20;3.00;;;;;;;;;;5068087;28;20737;-65
2023/09/04 02:37:06;;;;;;;2.70;2.60;;;;;;;;;;5067098;28;20230;-65
2023/09/04 02:39:33;;;;;;;2.80;2.70;;;;;;;;;;5067259;28;20272;-66
2023/09/04 02:41:59;;;;;;;2.50;2.30;;;;;;;;;;5066985;28;20202;-66
2023/09/04 02:44:25;;;;;;;2.92;2.83;;;;;;;;;;5068502;28;20621;-66
2023/09/04 02:46:53;;;;;;;3.20;3.10;;;;;;;;;;5067907;28;20324;-65
2023/09/04 02:49:20;;;;;;;3.58;3.38;;;;;;;;;;5068305;28;20727;-66
2023/09/04 02:51:46;;;;;;;3.40;3.20;;;;;;;;;;5068026;28;20676;-66
2023/09/04 02:54:12;;;;;;;3.65;3.45;;;;;;;;;;5066602;28;20218;-65
2023/09/04 02:56:39;;;;;;;3.88;3.60;;;;;;;;;;5067226;28;20321;-65
2023/09/04 02:59:05;;;;;;;3.58;3.35;;;;;;;;;;5066185;28;20202;-67
2023/09/04 03:01:34;;;;;;;3.83;3.03;;;;;;;;;;5068088;28;20234;-65
2023/09/04 03:04:02;;;;;;;3.15;2.95;;;;;;;;;;5066813;28;20198;-66
2023/09/04 03:06:28;;;;;;;3.03;2.90;;;;;;;;;;5069122;28;20186;-65
2023/09/04 03:08:55;;;;;;;3.65;3.45;;;;;;;;;;5069176;28;20234;-65
2023/09/04 03:11:21;;;;;;;2.90;2.80;;;;;;;;;;5068406;28;20283;-64
2023/09/04 03:13:47;;;;;;;3.10;2.92;;;;;;;;;;5067375;28;20234;-65
2023/09/04 03:16:14;;;;;;;5.53;3.00;;;;;;;;;;5067999;28;20780;-64
2023/09/04 03:18:40;;;;;;;3.42;3.22;;;;;;;;;;5068086;28;20194;-65
2023/09/04 03:21:09;;;;;;;3.50;2.72;;;;;;;;;;5067047;28;20679;-65
2023/09/04 03:23:36;;;;;;;2.90;2.80;;;;;;;;;;5067484;28;20207;-66
2023/09/04 03:26:02;;;;;;;3.10;3.00;;;;;;;;;;5067573;28;20221;-65
2023/09/04 03:28:28;;;;;;;3.35;3.13;;;;;;;;;;5068152;28;20279;-65
2023/09/04 03:30:55;;;;;;;3.03;2.88;;;;;;;;;;5067589;28;20235;-66
2023/09/04 03:33:21;;;;;;;3.30;3.10;;;;;;;;;;5068020;28;20207;-64
2023/09/04 03:35:48;;;;;;;2.97;2.88;;;;;;;;;;5066524;28;20354;-69
2023/09/04 03:38:16;;;;;;;2.90;2.78;;;;;;;;;;5066040;28;20676;-65
2023/09/04 03:40:42;;;;;;;3.00;2.90;;;;;;;;;;5067578;28;20679;-67
2023/09/04 03:43:09;;;;;;;3.67;3.47;;;;;;;;;;5067304;28;20229;-65
2023/09/04 03:45:35;;;;;;;3.25;2.92;;;;;;;;;;5066665;28;20226;-65
2023/09/04 03:48:02;;;;;;;3.17;3.00;;;;;;;;;;5066503;28;20287;-65
2023/09/04 03:50:28;;;;;;;3.58;3.28;;;;;;;;;;5067194;28;20240;-66
2023/09/04 03:52:55;;;;;;;5.30;2.97;;;;;;;;;;5067404;28;20237;-63
2023/09/04 03:55:24;;;;;;;3.70;3.40;;;;;;;;;;5066146;28;20211;-66
2023/09/04 03:57:51;;;;;;;3.10;2.92;;;;;;;;;;5067611;28;20206;-65
2023/09/04 04:00:18;;;;;;;3.40;3.20;;;;;;;;;;5066700;28;20272;-66
2023/09/04 04:02:45;;;;;;;3.33;3.22;;;;;;;;;;5067322;28;20195;-66
2023/09/04 04:05:12;;;;;;;3.60;3.40;;;;;;;;;;5066839;28;20722;-66
2023/09/04 04:07:39;;;;;;;3.85;3.55;;;;;;;;;;5065632;28;20207;-66
2023/09/04 04:10:06;;;;;;;3.90;3.38;;;;;;;;;;5067320;28;20229;-65
2023/09/04 04:12:34;;;;;;;3.80;3.60;;;;;;;;;;5065865;28;20225;-64
2023/09/04 04:15:04;;;;;;;3.30;3.08;;;;;;;;;;5065409;28;20198;-65
2023/09/04 04:17:31;;;;;;;9.30;8.48;;;;;;;;;;5066239;28;20649;-64
2023/09/04 04:19:58;;;;;;;6.97;6.35;;;;;;;;;;5068109;28;20275;-67
2023/09/04 04:22:24;;;;;;;3.67;3.38;;;;;;;;;;5065941;28;20226;-64
2023/09/04 04:24:51;;;;;;;3.47;3.28;;;;;;;;;;5066547;28;20704;-64
2023/09/04 04:27:18;;;;;;;3.70;3.50;;;;;;;;;;5066431;28;20272;-67
2023/09/04 04:29:46;;;;;;;4.15;3.78;;;;;;;;;;5064977;28;20208;-65
2023/09/04 04:32:13;;;;;;;5.47;3.65;;;;;;;;;;5066364;28;20206;-65
2023/09/04 04:34:40;;;;;;;4.15;3.85;;;;;;;;;;5066059;28;20565;-66
2023/09/04 04:37:07;;;;;;;4.00;3.60;;;;;;;;;;5065860;28;20269;-66
2023/09/04 04:39:33;;;;;;;4.07;3.38;;;;;;;;;;5065213;28;20198;-66
2023/09/04 04:42:00;;;;;;;8.45;7.60;;;;;;;;;;5066025;28;20237;-66
2023/09/04 04:44:26;;;;;;;11.32;10.27;;;;;;;;;;5065896;28;20229;-66
2023/09/04 04:46:54;;;;;;;4.43;4.03;;;;;;;;;;5063713;28;20233;-66
2023/09/04 04:49:21;;;;;;;10.10;9.10;;;;;;;;;;5065826;28;20307;-66
2023/09/04 04:51:47;;;;;;;10.38;8.98;;;;;;;;;;5065709;28;20206;-66
2023/09/04 04:54:14;;;;;;;4.28;3.63;;;;;;;;;;5065246;28;20245;-66
2023/09/04 04:56:40;;;;;;;3.10;2.90;;;;;;;;;;5065007;28;20305;-67
2023/09/04 04:59:08;;;;;;;3.30;2.70;;;;;;;;;;5065210;28;20210;-65
2023/09/04 05:01:34;;;;;;;3.20;3.10;;;;;;;;;;5064200;28;20210;-66
2023/09/04 05:04:02;;;;;;;4.25;3.05;;;;;;;;;;5065173;28;20255;-67
2023/09/04 05:06:28;;;;;;;2.75;2.60;;;;;;;;;;5065791;28;20239;-67
2023/09/04 05:08:55;;;;;;;3.45;3.15;;;;;;;;;;5065985;28;20202;-66
2023/09/04 05:11:21;;;;;;;3.03;2.83;;;;;;;;;;5064314;28;20233;-65
2023/09/04 05:13:48;;;;;;;3.28;3.15;;;;;;;;;;5064810;28;20218;-65
2023/09/04 05:16:14;;;;;;;3.00;2.80;;;;;;;;;;5064278;28;20230;-64
2023/09/04 05:18:41;;;;;;;4.35;4.05;;;;;;;;;;5065243;28;20202;-65
2023/09/04 05:21:09;;;;;;;3.05;2.88;;;;;;;;;;5065671;28;20210;-65
2023/09/04 05:23:35;;;;;;;2.47;2.38;;;;;;;;;;5064238;28;20769;-65
2023/09/04 05:26:02;;;;;;;2.47;2.38;;;;;;;;;;5062487;28;20205;-65
2023/09/04 05:28:29;;;;;;;2.90;2.70;;;;;;;;;;5065913;28;20249;-65
2023/09/04 05:31:01;;;;;;;2.55;2.42;;;;;;;;;;5065126;28;20259;-65
2023/09/04 05:33:28;;;;;;;2.20;2.10;;;;;;;;;;5065307;28;20198;-63
2023/09/04 05:35:55;;;;;;;2.65;2.55;;;;;;;;;;5064356;28;20253;-64
2023/09/04 05:38:23;;;;;;;2.78;2.53;;;;;;;;;;5066030;28;20198;-65
2023/09/04 05:40:50;;;;;;;3.22;2.45;;;;;;;;;;5063956;28;20281;-65
2023/09/04 05:43:16;;;;;;;2.47;2.38;;;;;;;;;;5063762;28;20226;-66
2023/09/04 05:45:43;;;;;;;2.50;2.40;;;;;;;;;;5063916;28;20230;-65
2023/09/04 05:48:09;;;;;;;2.67;2.58;;;;;;;;;;5064479;28;20237;-66
2023/09/04 05:50:36;;;;;;;3.05;2.85;;;;;;;;;;5063032;28;20264;-64
2023/09/04 05:53:02;;;;;;;3.83;2.80;;;;;;;;;;5063881;28;20253;-64
2023/09/04 05:55:30;;;;;;;2.90;2.33;;;;;;;;;;5064214;28;20271;-65
2023/09/04 05:57:56;;;;;;;2.50;2.30;;;;;;;;;;5063185;28;20646;-65
2023/09/04 06:00:23;;;;;;;2.85;2.75;;;;;;;;;;5064273;28;20750;-65
2023/09/04 06:02:49;;;;;;;3.00;2.80;;;;;;;;;;5063908;28;20679;-65
2023/09/04 06:05:16;;;;;;;2.78;2.60;;;;;;;;;;5065113;28;20635;-65
2023/09/04 06:07:43;;;;;;;2.92;2.60;;;;;;;;;;5063924;28;20830;-66
2023/09/04 06:10:10;;;;;;;2.45;2.35;;;;;;;;;;5063982;28;20681;-65
2023/09/04 06:12:37;;;;;;;3.08;2.85;;;;;;;;;;5065099;28;20215;-65
2023/09/04 06:15:04;;;;;;;2.38;2.28;;;;;;;;;;5065330;28;20194;-65
2023/09/04 06:17:32;;;;;;;2.72;2.63;;;;;;;;;;5063526;28;20226;-64
2023/09/04 06:19:58;;;;;;;2.92;2.60;;;;;;;;;;5065216;28;20733;-65
2023/09/04 06:22:25;;;;;;;2.55;2.45;;;;;;;;;;5061533;28;20642;-64
2023/09/04 06:24:51;;;;;;;3.25;3.05;;;;;;;;;;5064175;28;20195;-65
2023/09/04 06:27:18;;;;;;;2.63;2.38;;;;;;;;;;5064411;28;20203;-65
2023/09/04 06:29:45;;;;;;;7.18;2.90;;;;;;;;;;5063662;28;20294;-66
2023/09/04 06:32:14;;;;;;;3.38;3.13;;;;;;;;;;5062942;28;20234;-66
2023/09/04 06:34:41;;;;;;;2.85;2.67;;;;;;;;;;5063918;28;20306;-66
2023/09/04 06:37:08;;;;;;;3.17;2.90;;;;;;;;;;5063046;28;20283;-65
2023/09/04 06:39:34;;;;;;;9.23;3.00;;;;;;;;;;5064741;28;20759;-65
2023/09/04 06:42:01;;;;;;;3.45;3.25;;;;;;;;;;5064194;28;20230;-65
2023/09/04 06:44:27;;;;;;;3.75;3.55;;;;;;;;;;5064637;28;20228;-65
2023/09/04 06:46:55;;;;;;;4.15;3.78;;;;;;;;;;5064611;28;20207;-65
2023/09/04 06:49:22;;;;;;;4.45;3.67;;;;;;;;;;5063343;28;20672;-65
2023/09/04 06:51:48;;;;;;;2.80;2.60;;;;;;;;;;5064063;28;20222;-65
2023/09/04 06:54:14;;;;;;;2.88;2.55;;;;;;;;;;5063890;28;20222;-65
2023/09/04 06:56:41;;;;;;;3.35;3.15;;;;;;;;;;5064215;28;20230;-64
2023/09/04 06:59:07;;;;;;;3.05;2.75;;;;;;;;;;5063365;28;20210;-66
2023/09/04 07:01:34;;;;;;;2.83;2.72;;;;;;;;;;5063349;28;20233;-65
2023/09/04 07:04:01;;;;;;;4.10;2.53;;;;;;;;;;5064224;28;20291;-67
2023/09/04 07:06:28;;;;;;;2.95;2.75;;;;;;;;;;5064482;28;20207;-65
2023/09/04 07:08:54;;;;;;;3.10;2.90;;;;;;;;;;5064771;28;20259;-65
2023/09/04 07:11:21;;;;;;;3.05;2.85;;;;;;;;;;5063972;28;20209;-66
2023/09/04 07:13:47;;;;;;;3.10;2.90;;;;;;;;;;5063544;28;20275;-66
2023/09/04 07:16:14;;;;;;;2.75;2.55;;;;;;;;;;5067884;28;20234;-66
2023/09/04 07:18:40;;;;;;;2.88;2.78;;;;;;;;;;5066663;28;20313;-65
2023/09/04 07:21:08;;;;;;;3.00;2.90;;;;;;;;;;5066511;28;20230;-68
2023/09/04 07:23:34;;;;;;;3.40;2.83;;;;;;;;;;5067316;28;20279;-66
2023/09/04 07:26:01;;;;;;;3.30;3.10;;;;;;;;;;5066648;28;20222;-64
2023/09/04 07:28:27;;;;;;;3.00;2.80;;;;;;;;;;5066768;28;20242;-66
2023/09/04 07:31:08;;;;;;;3.70;3.40;;;;;;;;;;5067464;28;20229;-69
2023/09/04 07:33:34;;;;;;;3.60;3.30;;;;;;;;;;5066719;28;20230;-65
2023/09/04 07:36:01;;;;;;;3.28;3.15;;;;;;;;;;5066904;28;20291;-66
2023/09/04 07:38:28;;;;;;;3.78;3.47;;;;;;;;;;5066848;28;20280;-66
2023/09/04 07:40:59;;;;;;;13.75;3.88;;;;;;;;;;5067084;28;20234;-65
2023/09/04 07:43:26;;;;;;;8.30;5.78;;;;;;;;;;5065425;28;20676;-65
2023/09/04 07:45:54;;;;;;;4.47;4.18;;;;;;;;;;5067130;28;20630;-66
2023/09/04 07:48:21;;;;;;;3.80;3.50;;;;;;;;;;5066708;28;20320;-65
2023/09/04 07:50:48;;;;;;;4.38;3.60;;;;;;;;;;5067286;28;20201;-65
2023/09/04 07:53:15;;;;;;;4.45;4.15;;;;;;;;;;5066598;28;20313;-67
2023/09/04 07:55:43;;;;;;;3.55;3.33;;;;;;;;;;5067013;28;20206;-65
2023/09/04 07:58:10;;;;;;;3.60;3.40;;;;;;;;;;5064387;28;20222;-67
2023/09/04 08:00:36;;;;;;;6.95;4.85;;;;;;;;;;5067137;28;20703;-65
2023/09/04 08:03:03;;;;;;;5.30;4.80;;;;;;;;;;5066501;28;20633;-66
2023/09/04 08:05:29;;;;;;;7.40;4.97;;;;;;;;;;5066579;28;20256;-66
2023/09/04 08:07:56;;;;;;;4.55;4.25;;;;;;;;;;5066121;28;20226;-66
2023/09/04 08:10:22;;;;;;;5.15;4.30;;;;;;;;;;5067582;28;20206;-65
2023/09/04 08:12:50;;;;;;;5.78;4.50;;;;;;;;;;5063534;28;20198;-64
2023/09/04 08:15:17;;;;;;;6.03;4.30;;;;;;;;;;5066189;28;20641;-66
2023/09/04 08:17:45;;;;;;;5.05;4.75;;;;;;;;;;5066785;28;20250;-64
2023/09/04 08:20:12;;;;;;;3.95;3.72;;;;;;;;;;5066909;28;20198;-64
2023/09/04 08:22:39;;;;;;;4.22;3.67;;;;;;;;;;5065120;28;20238;-66
2023/09/04 08:25:06;;;;;;;4.55;3.80;;;;;;;;;;5065961;28;20680;-66
2023/09/04 08:27:32;;;;;;;4.45;4.00;;;;;;;;;;5065617;28;20198;-66
2023/09/04 08:30:00;;;;;;;5.35;4.82;;;;;;;;;;5067363;28;20350;-66
2023/09/04 08:32:26;;;;;;;5.07;4.25;;;;;;;;;;5064841;28;21021;-66
2023/09/04 08:34:53;;;;;;;4.05;3.80;;;;;;;;;;5066930;28;20202;-66
2023/09/04 08:37:19;;;;;;;3.95;3.65;;;;;;;;;;5064714;28;20246;-66
2023/09/04 08:39:46;;;;;;;4.75;4.25;;;;;;;;;;5066733;28;20765;-67
2023/09/04 08:42:13;;;;;;;4.72;3.67;;;;;;;;;;5066032;28;20617;-67
2023/09/04 08:44:40;;;;;;;4.50;4.20;;;;;;;;;;5065037;28;20218;-66
2023/09/04 08:47:09;;;;;;;4.07;3.88;;;;;;;;;;5065645;28;20206;-66
2023/09/04 08:49:37;;;;;;;4.53;4.28;;;;;;;;;;5064877;28;20210;-67
2023/09/04 08:52:05;;;;;;;5.20;4.90;;;;;;;;;;5065918;28;20194;-66
2023/09/04 08:54:32;;;;;;;4.38;3.97;;;;;;;;;;5064870;28;20194;-65
2023/09/04 08:56:58;;;;;;;5.13;4.45;;;;;;;;;;5066414;28;20225;-66
2023/09/04 08:59:25;;;;;;;4.03;3.83;;;;;;;;;;5065922;28;20202;-66
2023/09/04 09:01:52;;;;;;;4.20;3.90;;;;;;;;;;5066527;28;20215;-66
2023/09/04 09:04:21;;;;;;;4.25;3.95;;;;;;;;;;5065313;28;20206;-67
2023/09/04 09:06:48;;;;;;;3.83;3.63;;;;;;;;;;5065846;28;20206;-66
2023/09/04 09:09:15;;;;;;;4.55;4.25;;;;;;;;;;5065202;28;20749;-66
2023/09/04 09:11:42;;;;;;;4.30;4.00;;;;;;;;;;5062563;28;20871;-64
2023/09/04 09:14:08;;;;;;;4.03;3.80;;;;;;;;;;5063136;28;20590;-65
2023/09/04 09:16:35;;;;;;;10.75;9.80;;;;;;;;;;5066290;28;20210;-64
2023/09/04 09:19:02;;;;;;;8.88;8.00;;;;;;;;;;5064585;28;20678;-65
2023/09/04 09:21:31;;;;;;;6.32;5.95;;;;;;;;;;5063441;28;20203;-64
2023/09/04 09:24:09;;;;;;;6.97;6.47;;;;;;;;;;5064835;28;20213;-69
2023/09/04 09:26:35;;;;;;;7.32;6.43;;;;;;;;;;5065376;28;20244;-67
2023/09/04 09:29:03;;;;;;;9.82;7.00;;;;;;;;;;5063732;28;20233;-68
2023/09/04 09:31:29;;;;;;;8.10;6.53;;;;;;;;;;5065017;28;20224;-67
2023/09/04 09:33:56;;;;;;;5.20;4.90;;;;;;;;;;5065522;28;20230;-65
2023/09/04 09:36:23;;;;;;;5.38;4.95;;;;;;;;;;5063532;28;20284;-64
2023/09/04 09:38:51;;;;;;;6.80;6.20;;;;;;;;;;5064494;28;20257;-62
2023/09/04 09:41:17;;;;;;;10.10;7.05;;;;;;;;;;5065473;28;20234;-62
2023/09/04 09:43:43;;;;;;;6.57;6.07;;;;;;;;;;5065193;28;20683;-63
2023/09/04 09:46:10;;;;;;;7.00;6.18;;;;;;;;;;5065955;28;20632;-63
2023/09/04 09:48:37;;;;;;;6.60;6.10;;;;;;;;;;5065823;28;20658;-62
2023/09/04 09:51:06;;;;;;;9.75;6.20;;;;;;;;;;5065435;28;20731;-63
2023/09/04 09:53:43;;;;;;;8.07;6.82;;;;;;;;;;5065520;28;20283;-62
2023/09/04 09:56:12;;;;;;;6.57;6.18;;;;;;;;;;5065944;28;20259;-63
2023/09/04 09:58:39;;;;;;;7.70;6.38;;;;;;;;;;5066257;28;20367;-61
2023/09/04 10:01:06;;;;;;;6.90;6.18;;;;;;;;;;5065810;28;20745;-63
2023/09/04 10:03:33;;;;;;;8.95;6.53;;;;;;;;;;5064883;28;20226;-62
2023/09/04 10:06:02;;;;;;;7.60;6.93;;;;;;;;;;5066115;28;20284;-61
2023/09/04 10:08:29;;;;;;;7.30;6.90;;;;;;;;;;5066211;28;20198;-63
2023/09/04 10:10:56;;;;;;;7.88;7.22;;;;;;;;;;5065747;28;20225;-64
2023/09/04 10:13:27;;;;;;;8.40;7.70;;;;;;;;;;5064872;28;20639;-64
2023/09/04 10:15:54;;;;;;;8.32;7.65;;;;;;;;;;5065536;28;20680;-61
2023/09/04 10:18:24;;;;;;;10.70;8.48;;;;;;;;;;5065403;28;20700;-62
2023/09/04 10:20:51;;;;;;;9.32;8.50;;;;;;;;;;5065911;28;20225;-62
2023/09/04 10:23:20;;;;;;;9.48;8.88;;;;;;;;;;5065681;28;20213;-62
2023/09/04 10:25:50;;;;;;;10.80;9.90;;;;;;;;;;5064875;28;20235;-62
2023/09/04 10:28:19;;;;;;;9.40;8.48;;;;;;;;;;5065769;28;20230;-62
2023/09/04 10:30:50;;;;;;;9.90;9.05;;;;;;;;;;5065800;28;20339;-62
2023/09/04 10:33:17;;;;;;;9.85;9.18;;;;;;;;;;5064792;28;20310;-63
2023/09/04 10:35:43;;;;;;;9.23;8.57;;;;;;;;;;5065192;28;20238;-62
2023/09/04 10:38:10;;;;;;;9.43;8.38;;;;;;;;;;5065197;28;20275;-61
2023/09/04 10:40:38;;;;;;;11.88;9.40;;;;;;;;;;5064734;28;20202;-62
2023/09/04 10:43:05;;;;;;;8.18;7.32;;;;;;;;;;5065449;28;20202;-62
2023/09/04 10:45:32;;;;;;;7.63;7.13;;;;;;;;;;5065608;28;20226;-63
2023/09/04 10:48:01;;;;;;;9.40;6.93;;;;;;;;;;5067146;28;20634;-65
2023/09/04 10:50:28;;;;;;;6.97;6.47;;;;;;;;;;5068982;28;20210;-63
2023/09/04 10:52:55;;;;;;;7.28;6.78;;;;;;;;;;5069939;28;20222;-63
2023/09/04 10:55:21;;;;;;;7.65;7.05;;;;;;;;;;5068643;28;20917;-65
2023/09/04 10:57:55;;;;;;;7.63;7.03;;;;;;;;;;5068273;28;20255;-65
2023/09/04 11:00:34;;;;;;;7.35;6.63;;;;;;;-142.91;0.00;145865.97;5068216;28;20592;-64
2023/09/04 11:03:15;;;;;;;5.85;5.32;;;;;;;;;;5067606;28;20584;-63
2023/09/04 11:05:59;;;;;;;5.85;5.45;;;;;;;;;;5068786;28;20203;-63
2023/09/04 11:08:26;;;;;;;5.97;5.57;;;;;;;;;;5067650;28;20260;-63
2023/09/04 11:10:59;;;;;;;5.85;5.35;;;;;;;;;;5068800;28;20221;-63
2023/09/04 11:13:26;;;;;;;8.70;6.32;;;;;;;;;;5068969;28;20463;-63
2023/09/04 11:15:55;;;;;;;7.07;6.57;;;;;;;;;;5068387;28;20202;-65
2023/09/04 11:18:29;;;;;;;8.57;7.43;;;;;;;;;;5069005;28;20309;-64
2023/09/04 11:20:56;;;;;;;10.05;9.02;;;;;;;;;;5068825;28;20202;-63
2023/09/04 11:23:24;;;;;;;9.00;8.40;;;;;;;;;;5068423;28;20714;-62
2023/09/04 11:25:52;;;;;;;13.05;11.50;;;;;;;;;;5067619;28;20761;-62
2023/09/04 11:28:22;;;;;;;13.90;12.40;;;;;;;;;;5068493;28;20226;-62
2023/09/04 11:30:49;;;;;;;9.40;8.55;;;;;;;;;;5066120;28;20210;-63
2023/09/04 11:33:16;;;;;;;8.63;8.13;;;;;;;;;;5068893;28;20248;-64
2023/09/04 11:35:43;;;;;;;6.47;5.97;;;;;;;;;;5068287;28;20206;-62
2023/09/04 11:38:23;;;;;;;4.30;3.90;;;;;;;;;;5068445;28;20797;-64
2023/09/04 11:40:49;;;;;;;4.38;4.18;;;;;;;;;;5067622;28;20229;-63
2023/09/04 11:43:16;;;;;;;5.40;5.10;;;;;;;;;;5068795;28;20234;-63
2023/09/04 11:45:42;;;;;;;5.97;5.57;;;;;;;;;;5068067;28;20611;-62
2023/09/04 11:48:08;;;;;;;6.47;6.13;;;;;;;;;;5068431;28;20647;-63
2023/09/04 11:50:35;;;;;;;6.18;5.72;;;;;;;;;;5067628;28;21070;-63
2023/09/04 11:53:03;;;;;;;5.63;5.32;;;;;;;;;;5068361;28;20734;-64
2023/09/04 11:55:29;;;;;;;6.05;5.68;;;;;;;;;;5068084;28;20198;-63
2023/09/04 11:57:56;;;;;;;5.40;5.00;;;;;;;;;;5068471;28;20210;-64
2023/09/04 12:00:22;;;;;;;5.90;5.47;;;;;;;;;;5066984;28;20285;-65
2023/09/04 12:02:49;;;;;;;4.57;4.30;;;;;;;;;;5066829;28;20206;-64
2023/09/04 12:05:17;;;;;;;4.45;4.25;;;;;;;;;;5068320;28;20702;-64
2023/09/04 12:07:43;;;;;;;4.97;4.68;;;;;;;;;;5067875;28;20212;-63
2023/09/04 12:10:11;;;;;;;4.43;4.22;;;;;;;;;;5067452;28;20205;-63
2023/09/04 12:12:38;;;;;;;4.20;4.00;;;;;;;;;;5067380;28;20242;-62
2023/09/04 12:15:06;;;;;;;3.53;3.33;;;;;;;;;;5068334;28;20222;-62
2023/09/04 12:17:32;;;;;;;4.10;3.85;;;;;;;;;;5067346;28;20684;-62
2023/09/04 12:20:03;;;;;;;3.58;3.38;;;;;;;;;;5067641;28;20230;-62
2023/09/04 12:22:29;;;;;;;5.30;4.70;;;;;;;;;;5067175;28;20285;-63
2023/09/04 12:24:59;;;;;;;5.82;5.45;;;;;;;;;;5067702;28;20225;-62
2023/09/04 12:27:27;;;;;;;5.30;5.00;;;;;;;;;;5066338;28;20251;-63
2023/09/04 12:29:54;;;;;;;4.45;4.25;;;;;;;;;;5066801;28;20237;-63
2023/09/04 12:32:21;;;;;;;6.32;4.40;;;;;;;;;;5067669;28;20231;-63
2023/09/04 12:34:48;;;;;;;4.25;4.05;;;;;;;;;;5067431;28;20255;-64
2023/09/04 12:37:15;;;;;;;4.65;4.38;;;;;;;;;;5066685;28;20237;-63
2023/09/04 12:39:41;;;;;;;3.67;3.38;;;;;;;;;;5067266;28;20623;-63
2023/09/04 12:42:08;;;;;;;3.35;3.15;;;;;;;;;;5067176;28;20321;-63
2023/09/04 12:44:36;;;;;;;3.03;2.90;;;;;;;;;;5067052;28;20194;-62
2023/09/04 12:47:02;;;;;;;2.60;2.50;;;;;;;;;;5066366;28;20245;-63
2023/09/04 12:49:31;;;;;;;2.95;2.85;;;;;;;;;;5066659;28;20707;-63
2023/09/04 12:51:58;;;;;;;3.10;2.90;;;;;;;;;;5066236;28;20699;-64
2023/09/04 12:54:24;;;;;;;4.03;3.03;;;;;;;;;;5067313;28;20268;-63
2023/09/04 12:56:51;;;;;;;2.92;2.72;;;;;;;;;;5067506;28;20236;-63
2023/09/04 12:59:17;;;;;;;2.67;2.58;;;;;;;;;;5066458;28;20657;-62
2023/09/04 13:01:45;;;;;;;3.70;3.40;;;;;;;;;;5066495;28;20203;-62
2023/09/04 13:04:11;;;;;;;3.40;3.10;;;;;;;;;;5066780;28;20742;-62
2023/09/04 13:06:38;;;;;;;4.35;4.05;;;;;;;;;;5065802;28;20684;-63
2023/09/04 13:09:06;;;;;;;3.85;3.38;;;;;;;;;;5066927;28;20299;-63
2023/09/04 13:11:32;;;;;;;3.30;2.80;;;;;;;;;;5066432;28;20237;-63
2023/09/04 13:13:59;;;;;;;3.35;3.15;;;;;;;;;;5066565;28;20205;-64
2023/09/04 13:16:25;;;;;;;4.32;4.03;;;;;;;;;;5067006;28;20230;-63
2023/09/04 13:18:53;;;;;;;3.70;3.38;;;;;;;;;;5066599;28;20218;-63
2023/09/04 13:21:19;;;;;;;3.60;3.40;;;;;;;;;;5066327;28;20237;-62
2023/09/04 13:23:46;;;;;;;3.28;3.08;;;;;;;;;;5066551;28;20226;-63
2023/09/04 13:26:13;;;;;;;4.50;4.15;;;;;;;;;;5066468;28;20204;-63
2023/09/04 13:28:39;;;;;;;4.30;3.90;;;;;;;;;;5066716;28;20233;-63
2023/09/04 13:31:05;;;;;;;3.92;3.17;;;;;;;;;;5065918;28;20207;-63
2023/09/04 13:33:33;;;;;;;3.83;3.53;;;;;;;;;;5066929;28;20225;-63
2023/09/04 13:36:01;;;;;;;4.47;4.28;;;;;;;;;;5065917;28;20228;-63
2023/09/04 13:38:27;;;;;;;3.97;3.67;;;;;;;;;;5066429;28;20234;-64
2023/09/04 13:40:55;;;;;;;4.47;4.18;;;;;;;;;;5065703;28;20217;-64
2023/09/04 13:43:21;;;;;;;5.15;4.70;;;;;;;;;;5066554;28;20237;-65
2023/09/04 13:45:48;;;;;;;5.22;4.82;;;;;;;;;;5065628;28;20233;-64
2023/09/04 13:48:14;;;;;;;5.88;5.22;;;;;;;;;;5066361;28;20588;-64
2023/09/04 13:50:41;;;;;;;6.03;5.63;;;;;;;;;;5065830;28;20249;-65
2023/09/04 13:53:08;;;;;;;5.10;4.82;;;;;;;;;;5066000;28;20221;-63
2023/09/04 13:55:35;;;;;;;5.53;5.03;;;;;;;;;;5065728;28;20247;-63
2023/09/04 13:58:01;;;;;;;4.38;4.00;;;;;;;;;;5065956;28;20679;-63
2023/09/04 14:00:28;;;;;;;4.53;4.22;;;;;;;;;;5065422;28;20276;-65
2023/09/04 14:02:54;;;;;;;5.20;4.95;;;;;;;;;;5065592;28;20241;-64
2023/09/04 14:05:21;;;;;;;5.78;5.25;;;;;;;;;;5066482;28;20206;-65
2023/09/04 14:07:47;;;;;;;5.85;5.45;;;;;;;;;;5065565;28;20611;-65
2023/09/04 14:10:15;;;;;;;5.75;5.40;;;;;;;;;;5065381;28;20250;-65
2023/09/04 14:12:41;;;;;;;5.00;4.57;;;;;;;;;;5064630;28;20213;-64
2023/09/04 14:15:08;;;;;;;4.65;4.25;;;;;;;;;;5066644;28;20226;-65
2023/09/04 14:17:35;;;;;;;4.22;4.03;;;;;;;;;;5065959;28;20224;-64
2023/09/04 14:20:01;;;;;;;4.50;4.10;;;;;;;;;;5066112;28;20280;-63
2023/09/04 14:22:28;;;;;;;4.50;4.20;;;;;;;;;;5065647;28;20230;-64
2023/09/04 14:24:54;;;;;;;5.38;4.97;;;;;;;;;;5069728;28;20684;-63
2023/09/04 14:27:22;;;;;;;4.50;4.30;;;;;;;;;;5069413;28;20264;-63
2023/09/04 14:29:48;;;;;;;4.15;3.95;;;;;;;;;;5069630;28;20202;-63
2023/09/04 14:32:15;;;;;;;5.03;4.60;;;;;;;;;;5069429;28;20255;-63
2023/09/04 14:34:41;;;;;;;4.80;4.47;;;;;;;;;;5069772;28;20275;-64
2023/09/04 14:37:08;;;;;;;4.88;4.57;;;;;;;;;;5068867;28;20291;-64
2023/09/04 14:39:34;;;;;;;4.20;3.88;;;;;;;;;;5069965;28;20262;-64